.
WxDataArchive / Data Records for 2006-11-20
2006-11-19 November 2006 2006-11-21

Data Records for Monday, 20 November 2006

Time	Temp	Chill	HIndex	Humid	Dewpt	 Wind 	HiWind	WindDir	Rain 	Barom 
-----	----	-----	------	-----	-----	------	------	-------	-----	----- 
00:00	32.9	32.9	32.9	75	25.9	0	1	292	0.00	30.205 
00:05	32.8	32.8	32.8	75	25.8	0	2	292	0.00	30.205 
00:10	32.7	32.7	32.7	75	25.7	0	2	338	0.00	30.205 
00:15	32.5	32.5	32.5	76	25.8	0	2	338	0.00	30.201 
00:20	32.4	32.4	32.4	76	25.7	0	2	338	0.00	30.201 
00:25	32.2	32.2	32.2	76	25.5	0	2	338	0.00	30.201 
00:30	32.1	32.1	32.1	77	25.7	0	1	338	0.00	30.207 
00:35	31.9	31.9	31.9	77	25.5	0	2	315	0.00	30.207 
00:40	31.9	31.9	31.9	76	25.2	0	3	315	0.00	30.207 
00:45	31.8	31.8	31.8	76	25.1	0	2	315	0.00	30.209 
00:50	31.6	31.6	31.6	77	25.2	0	1	315	0.00	30.209 
00:55	31.3	31.3	31.3	77	24.9	0	2	292	0.00	30.209 
01:00	31.3	31.3	31.3	77	24.9	0	2	292	0.00	30.209 
01:05	31.2	31.2	31.2	77	24.8	0	1	292	0.00	30.209 
01:10	30.9	30.9	30.9	78	24.9	0	1	292	0.00	30.209 
01:15	30.7	30.7	30.7	78	24.7	0	1	292	0.00	30.209 
01:20	30.6	30.6	30.6	79	24.9	0	1	292	0.00	30.209 
01:25	30.3	30.3	30.3	79	24.6	0	1	292	0.00	30.209 
01:30	30.1	30.1	30.1	79	24.4	0	1	292	0.00	30.212 
01:35	30.0	30.0	30.0	80	24.6	0	1	292	0.00	30.212 
01:40	29.8	29.8	29.8	80	24.4	0	1	292	0.00	30.212 
01:45	29.7	29.7	29.7	81	24.6	0	0	---	0.00	30.212 
01:50	29.5	29.5	29.5	81	24.4	0	1	292	0.00	30.212 
01:55	29.5	29.5	29.5	81	24.4	0	1	292	0.00	30.212 
02:00	29.5	29.5	29.5	81	24.4	0	1	292	0.00	30.213 
02:05	29.5	29.5	29.5	81	24.4	0	1	292	0.00	30.213 
02:10	29.4	29.4	29.4	82	24.6	0	0	---	0.00	30.213 
02:15	29.3	29.3	29.3	82	24.5	0	0	---	0.00	30.216 
02:20	29.1	29.1	29.1	82	24.3	0	0	---	0.00	30.216 
02:25	29.1	29.1	29.1	82	24.3	0	0	---	0.00	30.216 
02:30	29.0	29.0	29.0	83	24.5	0	1	292	0.00	30.221 
02:35	28.8	28.8	28.8	83	24.3	0	0	---	0.00	30.221 
02:40	28.8	28.8	28.8	83	24.3	0	0	---	0.00	30.221 
02:45	28.7	28.7	28.7	83	24.2	0	0	---	0.00	30.228 
02:50	28.5	28.5	28.5	83	24.0	0	2	292	0.00	30.228 
02:55	28.4	28.4	28.4	83	23.9	0	0	---	0.00	30.228 
03:00	28.4	28.4	28.4	83	23.9	0	0	---	0.00	30.230 
03:05	28.4	28.4	28.4	83	23.9	0	0	---	0.00	30.230 
03:10	28.4	28.4	28.4	83	23.9	0	1	292	0.00	30.230 
03:15	28.4	28.4	28.4	83	23.9	0	1	292	0.00	30.234 
03:20	28.4	28.4	28.4	83	23.9	0	1	292	0.00	30.234 
03:25	28.5	28.5	28.5	83	24.0	0	1	292	0.00	30.234 
03:30	28.5	28.5	28.5	83	24.0	0	0	---	0.00	30.232 
03:35	28.5	28.5	28.5	83	24.0	0	1	292	0.00	30.232 
03:40	28.5	28.5	28.5	83	24.0	0	0	---	0.00	30.232 
03:45	28.5	28.5	28.5	84	24.3	0	1	292	0.00	30.231 
03:50	28.5	28.5	28.5	84	24.3	0	0	---	0.00	30.231 
03:55	28.7	28.7	28.7	84	24.5	0	1	292	0.00	30.231 
04:00	28.5	28.5	28.5	84	24.3	0	0	---	0.00	30.231 
04:05	28.5	28.5	28.5	84	24.3	0	0	---	0.00	30.231 
04:10	28.4	28.4	28.4	84	24.2	0	0	---	0.00	30.231 
04:15	28.4	28.4	28.4	84	24.2	0	0	---	0.00	30.234 
04:20	28.2	28.2	28.2	84	24.0	0	1	292	0.00	30.234 
04:25	28.2	28.2	28.2	84	24.0	0	0	---	0.00	30.234 
04:30	28.1	28.1	28.1	83	23.6	0	0	---	0.00	30.235 
04:35	28.1	28.1	28.1	83	23.6	0	0	---	0.00	30.235 
04:40	28.1	28.1	28.1	83	23.6	0	0	---	0.00	30.235 
04:45	27.9	27.9	27.9	83	23.4	0	0	---	0.00	30.235 
04:50	27.9	27.9	27.9	83	23.4	0	0	---	0.00	30.235 
04:55	27.8	27.8	27.8	84	23.6	0	0	---	0.00	30.235 
05:00	27.8	27.8	27.8	84	23.6	0	0	---	0.00	30.234 
05:05	27.6	27.6	27.6	84	23.4	0	0	---	0.00	30.234 
05:10	27.5	27.5	27.5	84	23.3	0	0	---	0.00	30.234 
05:15	27.3	27.3	27.3	84	23.1	0	0	---	0.00	30.237 
05:20	27.3	27.3	27.3	84	23.1	0	0	---	0.00	30.237 
05:25	27.2	27.2	27.2	84	23.0	0	0	---	0.00	30.237 
05:30	27.0	27.0	27.0	84	22.8	0	0	---	0.00	30.237 
05:35	26.7	26.7	26.7	84	22.5	0	0	---	0.00	30.237 
05:40	26.6	26.6	26.6	85	22.7	0	0	---	0.00	30.237 
05:45	26.4	26.4	26.4	85	22.5	0	0	---	0.00	30.246 
05:50	26.3	26.3	26.3	85	22.4	0	0	---	0.00	30.246 
05:55	26.0	26.0	26.0	85	22.1	0	0	---	0.00	30.246 
06:00	25.8	25.8	25.8	86	22.2	0	0	---	0.00	30.249 
06:05	25.7	25.7	25.7	86	22.1	0	0	---	0.00	30.249 
06:10	25.6	25.6	25.6	86	22.0	0	0	---	0.00	30.249 
06:15	25.4	25.4	25.4	86	21.8	0	0	---	0.00	30.252 
06:20	25.1	25.1	25.1	86	21.5	0	0	---	0.00	30.252 
06:25	25.0	25.0	25.0	86	21.4	0	0	---	0.00	30.252 
06:30	25.0	25.0	25.0	87	21.7	0	1	292	0.00	30.254 
06:35	25.0	25.0	25.0	88	22.0	0	0	---	0.00	30.254 
06:40	25.1	25.1	25.1	88	22.1	0	0	---	0.00	30.254 
06:45	25.3	25.3	25.3	88	22.3	0	0	---	0.00	30.261 
06:50	25.4	25.4	25.4	89	22.6	0	0	---	0.00	30.261 
06:55	25.4	25.4	25.4	89	22.6	0	0	---	0.00	30.261 
07:00	25.7	25.7	25.7	89	22.9	0	1	292	0.00	30.259 
07:05	25.8	25.8	25.8	89	23.0	0	0	---	0.00	30.259 
07:10	26.0	26.0	26.0	88	22.9	0	0	---	0.00	30.259 
07:15	26.1	26.1	26.1	88	23.0	0	0	---	0.00	30.263 
07:20	26.1	26.1	26.1	88	23.0	0	0	---	0.00	30.263 
07:25	26.1	26.1	26.1	88	23.0	0	0	---	0.00	30.263 
07:30	26.1	26.1	26.1	88	23.0	0	0	---	0.00	30.270 
07:35	26.0	26.0	26.0	88	22.9	0	0	---	0.00	30.270 
07:40	26.0	26.0	26.0	88	22.9	0	0	---	0.00	30.270 
07:45	26.0	26.0	26.0	88	22.9	0	0	---	0.00	30.272 
07:50	26.0	26.0	26.0	88	22.9	0	0	---	0.00	30.272 
07:55	26.0	26.0	26.0	88	22.9	0	0	---	0.00	30.272 
08:00	26.0	26.0	26.0	88	22.9	0	0	---	0.00	30.276 
08:05	26.1	26.1	26.1	88	23.0	0	0	---	0.00	30.276 
08:10	26.3	26.3	26.3	88	23.2	0	1	292	0.00	30.276 
08:15	26.6	26.6	26.6	88	23.5	0	0	---	0.00	30.280 
08:20	27.0	27.0	27.0	87	23.7	0	0	---	0.00	30.280 
08:25	27.3	27.3	27.3	87	24.0	0	0	---	0.00	30.280 
08:30	27.8	27.8	27.8	86	24.2	0	1	292	0.00	30.285 
08:35	28.1	28.1	28.1	85	24.2	0	0	---	0.00	30.285 
08:40	28.4	28.4	28.4	84	24.2	0	1	292	0.00	30.285 
08:45	28.7	28.7	28.7	84	24.5	0	0	---	0.00	30.289 
08:50	29.0	29.0	29.0	83	24.5	0	1	292	0.00	30.289 
08:55	29.4	29.4	29.4	83	24.9	0	1	292	0.00	30.289 
09:00	29.5	29.5	29.5	82	24.7	0	1	292	0.00	30.284 
09:05	29.8	29.8	29.8	82	25.0	0	1	292	0.00	30.284 
09:10	30.4	30.4	30.4	81	25.3	0	1	292	0.00	30.284 
09:15	30.9	30.9	30.9	80	25.5	0	2	292	0.00	30.290 
09:20	31.5	31.5	31.5	79	25.8	0	1	292	0.00	30.290 
09:25	32.1	32.1	32.1	77	25.7	0	2	292	0.00	30.290 
09:30	32.5	32.5	32.5	77	26.1	0	1	292	0.00	30.287 
09:35	32.8	32.8	32.8	76	26.1	0	1	292	0.00	30.287 
09:40	32.9	32.9	32.9	75	25.9	0	2	292	0.00	30.287 
09:45	33.2	33.2	33.2	74	25.8	0	2	292	0.00	30.293 
09:50	33.5	33.5	33.5	74	26.1	0	2	292	0.00	30.293 
09:55	33.8	33.8	33.8	74	26.4	0	2	270	0.00	30.293 
10:00	34.1	34.1	34.1	73	26.4	0	2	248	0.00	30.293 
10:05	34.4	34.4	34.4	73	26.7	0	2	338	0.00	30.293 
10:10	34.7	34.7	34.7	73	26.9	0	2	338	0.00	30.293 
10:15	35.0	35.0	35.0	71	26.6	1	3	338	0.00	30.294 
10:20	35.0	35.0	35.0	71	26.6	1	3	292	0.00	30.294 
10:25	35.3	35.3	35.3	70	26.5	0	3	292	0.00	30.294 
10:30	35.6	35.6	35.6	70	26.8	0	2	315	0.00	30.293 
10:35	35.8	35.8	35.8	70	27.0	1	3	270	0.00	30.293 
10:40	35.9	35.9	35.9	70	27.1	1	3	338	0.00	30.293 
10:45	36.2	36.2	36.2	70	27.4	0	2	338	0.00	30.293 
10:50	36.5	36.5	36.5	69	27.3	0	2	338	0.00	30.293 
10:55	36.8	36.8	36.8	69	27.6	0	3	338	0.00	30.293 
11:00	36.9	36.9	36.9	68	27.3	1	4	22	0.00	30.303 
11:05	36.9	36.9	36.9	69	27.7	0	2	22	0.00	30.303 
11:10	37.0	37.0	37.0	69	27.8	0	3	22	0.00	30.303 
11:15	37.3	37.3	37.3	68	27.7	0	2	270	0.00	30.296 
11:20	37.5	37.5	37.5	68	27.9	0	2	270	0.00	30.296 
11:25	37.8	37.8	37.8	68	28.2	0	2	270	0.00	30.296 
11:30	38.0	38.0	38.0	67	28.0	0	2	270	0.00	30.293 
11:35	38.0	38.0	38.0	67	28.0	0	2	270	0.00	30.293 
11:40	38.0	38.0	38.0	66	27.7	0	2	292	0.00	30.293 
11:45	38.2	38.2	38.2	67	28.2	0	2	0	0.00	30.292 
11:50	38.2	38.2	38.2	66	27.9	0	2	0	0.00	30.292 
11:55	38.3	38.3	38.3	66	28.0	1	3	0	0.00	30.292 
12:00	38.5	38.5	38.5	67	28.5	0	1	315	0.00	30.291 
12:05	38.8	38.8	38.8	68	29.2	0	2	315	0.00	30.291 
12:10	38.8	38.8	38.8	69	29.5	0	2	292	0.00	30.291 
12:15	38.8	38.8	38.8	67	28.8	1	2	315	0.00	30.291 
12:20	38.8	38.8	38.8	66	28.4	1	3	22	0.00	30.291 
12:25	38.8	38.8	38.8	66	28.4	1	3	270	0.00	30.291 
12:30	38.9	38.9	38.9	66	28.5	1	2	315	0.00	30.291 
12:35	39.1	39.1	39.1	65	28.3	1	3	315	0.00	30.291 
12:40	39.2	39.2	39.2	66	28.8	1	3	292	0.00	30.291 
12:45	39.3	39.3	39.3	65	28.5	0	2	292	0.00	30.289 
12:50	39.6	39.6	39.6	65	28.8	0	3	315	0.00	30.289 
12:55	39.8	39.8	39.8	65	29.0	0	3	315	0.00	30.289 
13:00	39.9	39.9	39.9	64	28.7	1	4	292	0.00	30.285 
13:05	39.8	39.8	39.8	64	28.6	1	2	338	0.00	30.285 
13:10	39.9	39.9	39.9	64	28.7	0	2	270	0.00	30.285 
13:15	40.1	40.1	40.1	63	28.5	1	2	292	0.00	30.279 
13:20	40.2	40.2	40.2	63	28.6	0	3	338	0.00	30.279 
13:25	40.2	40.2	40.2	61	27.8	1	4	338	0.00	30.279 
13:30	40.1	40.1	40.1	62	28.1	1	3	338	0.00	30.280 
13:35	40.2	40.2	40.2	62	28.2	0	3	22	0.00	30.280 
13:40	40.3	40.3	40.3	62	28.3	1	3	22	0.00	30.280 
13:45	40.5	40.5	40.5	62	28.5	1	3	22	0.00	30.287 
13:50	40.5	40.5	40.5	61	28.1	1	3	0	0.00	30.287 
13:55	40.6	40.6	40.6	62	28.6	0	2	338	0.00	30.287 
14:00	40.5	40.5	40.5	61	28.1	1	3	338	0.00	30.283 
14:05	40.5	40.5	40.5	62	28.5	1	4	338	0.00	30.283 
14:10	40.6	40.6	40.6	62	28.6	1	2	338	0.00	30.283 
14:15	40.6	40.6	40.6	61	28.2	1	3	292	0.00	30.286 
14:20	40.3	40.3	40.3	61	27.9	1	4	315	0.00	30.286 
14:25	40.2	40.2	40.2	62	28.2	1	3	292	0.00	30.286 
14:30	40.1	40.1	40.1	61	27.7	1	3	270	0.00	30.289 
14:35	40.1	40.1	40.1	62	28.1	1	4	270	0.00	30.289 
14:40	39.9	39.9	39.9	63	28.3	1	4	0	0.00	30.289 
14:45	40.1	40.1	40.1	62	28.1	0	3	22	0.00	30.290 
14:50	40.1	40.1	40.1	62	28.1	1	5	292	0.00	30.290 
14:55	40.1	40.1	40.1	61	27.7	0	3	338	0.00	30.290 
15:00	40.2	40.2	40.2	60	27.4	0	1	338	0.00	30.292 
15:05	40.2	40.2	40.2	59	27.0	1	2	338	0.00	30.292 
15:10	40.1	40.1	40.1	59	26.9	0	5	0	0.00	30.292 
15:15	40.1	40.1	40.1	59	26.9	1	3	0	0.00	30.290 
15:20	40.3	40.3	40.3	58	26.7	1	2	0	0.00	30.290 
15:25	40.5	40.5	40.5	58	26.9	1	3	315	0.00	30.290 
15:30	40.6	40.6	40.6	58	27.0	1	4	292	0.00	30.293 
15:35	40.8	40.8	40.8	59	27.6	1	4	270	0.00	30.293 
15:40	40.9	40.9	40.9	59	27.7	0	1	270	0.00	30.293 
15:45	41.2	41.2	41.2	58	27.6	1	2	22	0.00	30.302 
15:50	41.2	41.2	41.2	57	27.1	1	3	0	0.00	30.302 
15:55	41.2	41.2	41.2	59	28.0	1	3	0	0.00	30.302 
16:00	41.5	41.5	41.5	57	27.4	1	5	0	0.00	30.307 
16:05	41.3	41.3	41.3	56	26.8	1	4	338	0.00	30.307 
16:10	41.5	41.5	41.5	57	27.4	1	3	292	0.00	30.307 
16:15	41.5	41.5	41.5	55	26.6	1	3	248	0.00	30.308 
16:20	41.1	41.1	41.1	57	27.0	2	4	270	0.00	30.308 
16:25	40.8	40.8	40.8	57	26.8	0	1	338	0.00	30.308 
16:30	40.6	40.6	40.6	57	26.6	1	3	292	0.00	30.312 
16:35	40.8	40.8	40.8	57	26.8	0	2	315	0.00	30.312 
16:40	40.8	40.8	40.8	58	27.2	0	2	0	0.00	30.312 
16:45	40.6	40.6	40.6	58	27.0	0	3	0	0.00	30.313 
16:50	40.6	40.6	40.6	57	26.6	0	1	0	0.00	30.313 
16:55	40.5	40.5	40.5	57	26.5	0	2	22	0.00	30.313 
17:00	40.5	40.5	40.5	59	27.3	0	3	0	0.00	30.317 
17:05	40.2	40.2	40.2	58	26.6	1	2	0	0.00	30.317 
17:10	40.1	40.1	40.1	59	26.9	0	1	315	0.00	30.317 
17:15	39.9	39.9	39.9	59	26.7	0	2	0	0.00	30.323 
17:20	39.9	39.9	39.9	59	26.7	0	2	292	0.00	30.323 
17:25	39.8	39.8	39.8	58	26.2	0	2	292	0.00	30.323 
17:30	39.6	39.6	39.6	58	26.1	0	1	292	0.00	30.323 
17:35	39.6	39.6	39.6	59	26.5	0	1	292	0.00	30.323 
17:40	39.5	39.5	39.5	59	26.4	0	2	292	0.00	30.323 
17:45	39.5	39.5	39.5	59	26.4	0	1	292	0.00	30.326 
17:50	39.5	39.5	39.5	58	26.0	0	1	292	0.00	30.326 
17:55	39.5	39.5	39.5	59	26.4	0	1	292	0.00	30.326 
18:00	39.3	39.3	39.3	60	26.6	0	1	292	0.00	30.330 
18:05	39.3	39.3	39.3	58	25.8	0	1	292	0.00	30.330 
18:10	39.3	39.3	39.3	59	26.2	0	2	292	0.00	30.330 
18:15	39.2	39.2	39.2	60	26.5	0	1	292	0.00	30.330 
18:20	39.2	39.2	39.2	59	26.1	0	0	---	0.00	30.330 
18:25	39.1	39.1	39.1	60	26.4	0	1	292	0.00	30.330 
18:30	39.1	39.1	39.1	60	26.4	0	0	---	0.00	30.335 
18:35	38.9	38.9	38.9	61	26.6	0	1	292	0.00	30.335 
18:40	38.8	38.8	38.8	61	26.5	0	0	---	0.00	30.335 
18:45	38.8	38.8	38.8	61	26.5	0	0	---	0.00	30.345 
18:50	38.6	38.6	38.6	62	26.7	0	1	292	0.00	30.345 
18:55	38.6	38.6	38.6	62	26.7	0	0	---	0.00	30.345 
19:00	38.5	38.5	38.5	62	26.6	0	1	292	0.00	30.353 
19:05	38.5	38.5	38.5	62	26.6	0	1	292	0.00	30.353 
19:10	38.5	38.5	38.5	59	25.4	0	1	292	0.00	30.353 
19:15	38.6	38.6	38.6	60	25.9	0	0	---	0.00	30.359 
19:20	38.6	38.6	38.6	61	26.3	0	0	---	0.00	30.359 
19:25	38.5	38.5	38.5	61	26.2	0	0	---	0.00	30.359 
19:30	38.5	38.5	38.5	61	26.2	0	0	---	0.00	30.361 
19:35	38.3	38.3	38.3	62	26.4	0	0	---	0.00	30.361 
19:40	38.2	38.2	38.2	62	26.3	0	0	---	0.00	30.361 
19:45	37.9	37.9	37.9	63	26.4	0	0	---	0.00	30.360 
19:50	37.6	37.6	37.6	63	26.2	0	0	---	0.00	30.360 
19:55	37.5	37.5	37.5	64	26.4	0	0	---	0.00	30.360 
20:00	37.2	37.2	37.2	64	26.2	0	0	---	0.00	30.369 
20:05	37.0	37.0	37.0	65	26.3	0	0	---	0.00	30.369 
20:10	37.0	37.0	37.0	65	26.3	0	0	---	0.00	30.369 
20:15	37.0	37.0	37.0	65	26.3	0	0	---	0.00	30.371 
20:20	36.9	36.9	36.9	65	26.3	0	0	---	0.00	30.371 
20:25	36.9	36.9	36.9	65	26.3	0	0	---	0.00	30.371 
20:30	36.9	36.9	36.9	64	25.9	0	0	---	0.00	30.374 
20:35	36.9	36.9	36.9	63	25.5	0	0	---	0.00	30.374 
20:40	36.9	36.9	36.9	64	25.9	0	0	---	0.00	30.374 
20:45	36.8	36.8	36.8	63	25.4	0	0	---	0.00	30.381 
20:50	36.8	36.8	36.8	64	25.8	0	0	---	0.00	30.381 
20:55	36.8	36.8	36.8	65	26.2	0	0	---	0.00	30.381 
21:00	36.8	36.8	36.8	65	26.2	0	0	---	0.00	30.384 
21:05	36.6	36.6	36.6	66	26.3	0	1	292	0.00	30.384 
21:10	36.5	36.5	36.5	65	25.9	0	0	---	0.00	30.384 
21:15	36.0	36.0	36.0	65	25.4	0	0	---	0.00	30.373 
21:20	35.8	35.8	35.8	66	25.6	0	0	---	0.00	30.373 
21:25	35.3	35.3	35.3	67	25.5	0	0	---	0.00	30.373 
21:30	34.9	34.9	34.9	68	25.4	0	0	---	0.00	30.374 
21:35	34.3	34.3	34.3	69	25.2	0	0	---	0.00	30.374 
21:40	33.8	33.8	33.8	70	25.1	0	0	---	0.00	30.374 
21:45	33.4	33.4	33.4	72	25.4	0	0	---	0.00	30.387 
21:50	32.9	32.9	32.9	73	25.2	0	0	---	0.00	30.387 
21:55	32.5	32.5	32.5	73	24.8	0	0	---	0.00	30.387 
22:00	32.2	32.2	32.2	74	24.9	0	0	---	0.00	30.390 
22:05	31.8	31.8	31.8	75	24.8	0	1	292	0.00	30.390 
22:10	31.5	31.5	31.5	76	24.8	0	0	---	0.00	30.390 
22:15	31.2	31.2	31.2	76	24.5	0	0	---	0.00	30.388 
22:20	30.9	30.9	30.9	77	24.6	0	0	---	0.00	30.388 
22:25	30.6	30.6	30.6	78	24.6	0	0	---	0.00	30.388 
22:30	30.3	30.3	30.3	79	24.6	0	0	---	0.00	30.388 
22:35	30.0	30.0	30.0	79	24.3	0	0	---	0.00	30.388 
22:40	29.8	29.8	29.8	80	24.4	0	0	---	0.00	30.388 
22:45	29.5	29.5	29.5	81	24.4	0	0	---	0.00	30.389 
22:50	29.3	29.3	29.3	81	24.2	0	0	---	0.00	30.389 
22:55	29.1	29.1	29.1	82	24.3	0	0	---	0.00	30.389 
23:00	29.0	29.0	29.0	82	24.2	0	0	---	0.00	30.392 
23:05	28.8	28.8	28.8	82	24.0	0	0	---	0.00	30.392 
23:10	28.5	28.5	28.5	83	24.0	0	0	---	0.00	30.392 
23:15	28.4	28.4	28.4	83	23.9	0	0	---	0.00	30.395 
23:20	28.2	28.2	28.2	83	23.7	0	0	---	0.00	30.395 
23:25	28.1	28.1	28.1	84	23.9	0	0	---	0.00	30.395 
23:30	27.9	27.9	27.9	84	23.7	0	0	---	0.00	30.396 
23:35	27.8	27.8	27.8	84	23.6	0	0	---	0.00	30.396 
23:40	27.6	27.6	27.6	84	23.4	0	0	---	0.00	30.396 
23:45	27.5	27.5	27.5	84	23.3	0	0	---	0.00	30.405 
23:50	27.3	27.3	27.3	85	23.4	0	0	---	0.00	30.405 
23:55	27.3	27.3	27.3	85	23.4	0	0	---	0.00	30.405 

CoCoRaHS
IN-AL-39
A2 Web Hosting
Creative Commons License
GoDaddy
Look for:

loaded 2017-12-12 17:04:52 • last modified 2010-11-18 10:43:29
Privacy PolicyDisclaimer
• wx.awcolley.com is powered by PmWiki v.2002016 •
• all content (unless otherwise noted) © 2017 A W Colley